createdAt,value
2022-11-29T00:02:05.201Z,8.25
2022-11-29T00:04:35.192Z,10.40
2022-11-29T00:07:04.694Z,6.45
2022-11-29T00:09:34.217Z,6.93
2022-11-29T00:12:15.679Z,6.50
2022-11-29T00:14:53.492Z,10.63
2022-11-29T00:17:23.084Z,8.40
2022-11-29T00:19:52.562Z,9.15
2022-11-29T00:22:23.609Z,9.73
2022-11-29T00:24:53.504Z,7.78
2022-11-29T00:27:22.940Z,7.10
2022-11-29T00:29:53.773Z,8.27
2022-11-29T00:32:23.521Z,8.15
2022-11-29T00:34:59.498Z,10.63
2022-11-29T00:37:29.213Z,9.23
2022-11-29T00:39:59.122Z,9.60
2022-11-29T00:42:28.716Z,8.10
2022-11-29T00:44:59.666Z,9.77
2022-11-29T00:47:29.375Z,10.65
2022-11-29T00:49:58.931Z,13.60
2022-11-29T00:52:28.596Z,9.90
2022-11-29T00:54:58.007Z,9.75
2022-11-29T00:57:27.505Z,8.40
2022-11-29T00:59:59.408Z,8.65
2022-11-29T01:02:28.901Z,8.88
2022-11-29T01:04:58.380Z,9.73
2022-11-29T01:07:27.838Z,11.73
2022-11-29T01:09:57.377Z,8.60
2022-11-29T01:12:26.885Z,7.53
2022-11-29T01:14:59.001Z,8.32
2022-11-29T01:17:28.423Z,9.52
2022-11-29T01:19:57.890Z,8.98
2022-11-29T01:22:27.457Z,9.15
2022-11-29T01:24:57.039Z,8.90
2022-11-29T01:27:26.543Z,9.23
2022-11-29T01:29:55.961Z,12.50
2022-11-29T01:32:27.394Z,9.43
2022-11-29T01:34:56.840Z,9.68
2022-11-29T01:37:26.458Z,13.70
2022-11-29T01:39:55.899Z,10.02
2022-11-29T01:42:25.461Z,8.52
2022-11-29T01:45:21.923Z,9.85
2022-11-29T01:47:57.762Z,8.60
2022-11-29T01:50:27.344Z,8.88
2022-11-29T01:52:56.809Z,11.00
2022-11-29T01:55:27.039Z,10.95
2022-11-29T01:57:56.876Z,8.70
2022-11-29T02:00:26.769Z,10.77
2022-11-29T02:03:06.127Z,10.00
2022-11-29T02:05:36.100Z,8.35
2022-11-29T02:08:06.896Z,8.88
2022-11-29T02:10:57.919Z,10.60
2022-11-29T02:13:40.180Z,10.70
2022-11-29T02:16:25.818Z,9.68
2022-11-29T02:19:18.356Z,15.20
2022-11-29T02:21:52.769Z,12.63
2022-11-29T02:25:00.627Z,12.77
2022-11-29T02:28:31.219Z,14.18
2022-11-29T02:31:56.755Z,9.07
2022-11-29T02:35:00.423Z,11.10
2022-11-29T02:37:59.834Z,9.70
2022-11-29T02:41:05.676Z,12.40
2022-11-29T02:44:21.172Z,10.82
2022-11-29T02:47:09.729Z,11.60
2022-11-29T02:50:20.641Z,10.02
2022-11-29T02:53:03.816Z,12.43
2022-11-29T02:55:45.515Z,13.18
2022-11-29T02:58:26.474Z,12.18
2022-11-29T03:01:11.214Z,11.30
2022-11-29T03:03:50.695Z,11.07
2022-11-29T03:06:34.406Z,14.07
2022-11-29T03:09:14.008Z,9.95
2022-11-29T03:11:52.668Z,9.85
2022-11-29T03:14:28.436Z,10.90
2022-11-29T03:17:14.039Z,12.15
2022-11-29T03:20:08.272Z,12.60
2022-11-29T03:22:49.155Z,12.57
2022-11-29T05:40:50.385Z,5.93
2022-11-29T05:43:55.700Z,6.65
2022-11-29T05:46:35.157Z,4.75
2022-11-29T05:49:21.498Z,6.30
2022-11-29T05:52:10.428Z,4.72
2022-11-29T05:54:49.897Z,5.80
2022-11-29T05:57:32.736Z,7.38
2022-11-29T06:00:06.631Z,6.35
2022-11-29T06:02:58.353Z,5.75
2022-11-29T06:05:38.408Z,6.30
2022-11-29T06:08:16.745Z,4.78
2022-11-29T06:11:01.317Z,4.75
2022-11-29T06:13:54.588Z,5.25
2022-11-29T06:17:26.368Z,7.38
2022-11-29T06:20:24.683Z,5.85
2022-11-29T06:23:48.562Z,5.93
2022-11-29T06:26:42.021Z,5.70
2022-11-29T06:29:33.582Z,6.10
2022-11-29T06:32:21.047Z,7.30
2022-11-29T06:34:59.147Z,6.47
2022-11-29T06:37:36.216Z,6.25
2022-11-29T06:40:13.238Z,6.60
2022-11-29T06:42:42.844Z,7.53
2022-11-29T06:45:17.041Z,9.85
2022-11-29T06:47:54.281Z,6.63
2022-11-29T06:50:43.410Z,6.15
2022-11-29T06:53:25.075Z,7.55
2022-11-29T06:56:06.091Z,6.43
2022-11-29T06:58:52.542Z,6.00
2022-11-29T07:01:38.641Z,5.53
2022-11-29T07:04:46.268Z,8.23
2022-11-29T07:07:22.530Z,7.72
2022-11-29T07:09:58.542Z,7.60
2022-11-29T07:12:29.179Z,5.40
2022-11-29T07:14:59.866Z,7.97
2022-11-29T07:17:39.829Z,5.53
2022-11-29T07:20:17.088Z,4.80
2022-11-29T07:23:04.595Z,6.82
2022-11-29T07:25:51.479Z,5.70
2022-11-29T07:28:48.331Z,5.32
2022-11-29T07:31:32.457Z,3.95
2022-11-29T07:34:18.460Z,5.25
2022-11-29T07:37:01.456Z,4.93
2022-11-29T07:39:46.078Z,4.93
2022-11-29T07:42:27.004Z,4.85
2022-11-29T07:45:10.590Z,4.05
2022-11-29T07:50:12.798Z,4.97
2022-11-29T07:52:42.324Z,4.20
2022-11-29T07:55:18.686Z,5.60
2022-11-29T07:57:49.302Z,4.25
2022-11-29T08:00:21.173Z,3.78
2022-11-29T08:02:52.306Z,4.55
2022-11-29T08:05:23.928Z,6.30
2022-11-29T08:07:54.527Z,5.18
2022-11-29T08:10:24.288Z,3.70
2022-11-29T08:12:54.312Z,4.47
2022-11-29T08:15:26.172Z,4.18
2022-11-29T08:17:55.618Z,6.03
2022-11-29T08:20:26.383Z,7.10
2022-11-29T08:22:57.487Z,7.15
2022-11-29T08:25:29.089Z,4.40
2022-11-29T08:27:58.735Z,4.30
2022-11-29T08:30:28.115Z,4.32
2022-11-29T08:32:57.637Z,6.63
2022-11-29T08:35:28.502Z,3.47
2022-11-29T08:37:57.884Z,3.50
2022-11-29T08:40:27.735Z,3.85
2022-11-29T08:42:59.311Z,4.85
2022-11-29T08:45:28.842Z,4.53
2022-11-29T08:47:58.234Z,5.22
2022-11-29T08:50:29.060Z,4.55
2022-11-29T08:53:17.337Z,3.60
2022-11-29T08:55:46.945Z,4.22
2022-11-29T08:58:17.313Z,4.03
2022-11-29T09:00:47.228Z,3.80
2022-11-29T09:03:34.468Z,2.90
2022-11-29T09:06:12.461Z,5.00
2022-11-29T09:08:44.018Z,5.38
2022-11-29T09:11:18.113Z,7.45
2022-11-29T09:13:50.569Z,5.05
2022-11-29T09:16:25.262Z,5.50
2022-11-29T09:18:56.450Z,6.22
2022-11-29T09:21:30.024Z,3.58
2022-11-29T09:24:01.999Z,3.65
2022-11-29T09:26:35.069Z,3.75
2022-11-29T09:29:07.644Z,4.65
2022-11-29T09:31:37.286Z,6.10
2022-11-29T09:34:06.852Z,5.80
2022-11-29T09:36:37.740Z,4.35
2022-11-29T09:39:07.171Z,4.28
2022-11-29T09:42:09.659Z,6.68
2022-11-29T09:44:55.565Z,5.75
2022-11-29T09:48:11.416Z,5.78
2022-11-29T09:50:49.752Z,5.70
2022-11-29T09:53:44.969Z,4.50
2022-11-29T09:56:25.787Z,4.60
2022-11-29T09:59:04.787Z,5.00
2022-11-29T10:01:40.926Z,3.88
2022-11-29T10:04:17.643Z,4.75
2022-11-29T10:06:58.009Z,4.22
2022-11-29T10:09:38.369Z,4.00
2022-11-29T10:12:18.528Z,5.43
2022-11-29T10:14:55.049Z,3.40
2022-11-29T10:17:38.257Z,3.65
2022-11-29T10:20:17.580Z,6.95
2022-11-29T10:22:53.628Z,10.48
2022-11-29T10:25:30.869Z,4.78
2022-11-29T10:28:00.944Z,6.88
2022-11-29T10:30:33.107Z,7.85
2022-11-29T10:33:03.125Z,7.57
2022-11-29T10:35:35.079Z,6.20
2022-11-29T10:38:29.605Z,7.63
2022-11-29T10:41:06.081Z,7.00
2022-11-29T10:43:37.255Z,6.55
2022-11-29T10:46:15.233Z,6.30
2022-11-29T10:48:45.499Z,7.43
2022-11-29T10:51:19.074Z,6.63
2022-11-29T10:53:49.295Z,8.23
2022-11-29T10:56:29.244Z,8.23
2022-11-29T10:59:03.350Z,5.97
2022-11-29T11:01:37.235Z,4.70
2022-11-29T11:04:10.793Z,4.18
2022-11-29T11:06:49.764Z,6.88
2022-11-29T11:09:23.868Z,5.05
2022-11-29T11:11:59.027Z,5.22
2022-11-29T11:14:31.866Z,5.13
2022-11-29T11:17:23.521Z,6.22
2022-11-29T11:20:00.763Z,6.32
2022-11-29T11:22:32.833Z,5.60
2022-11-29T11:25:07.158Z,3.75
2022-11-29T11:27:40.344Z,5.88
2022-11-29T11:33:19.324Z,6.47
2022-11-29T11:36:06.857Z,9.38
2022-11-29T11:38:38.821Z,13.00
2022-11-29T11:41:21.358Z,8.05
2022-11-29T11:43:57.843Z,5.53
2022-11-29T11:46:49.092Z,7.00
2022-11-29T11:49:31.662Z,8.60
2022-11-29T11:52:02.393Z,9.25
2022-11-29T11:54:33.009Z,8.80
2022-11-29T11:57:02.473Z,8.48
2022-11-29T11:59:33.438Z,5.18
2022-11-29T12:02:02.908Z,5.75
2022-11-29T12:04:37.919Z,5.63
2022-11-29T12:07:29.721Z,8.27
2022-11-29T12:10:21.009Z,9.48
2022-11-29T12:12:52.107Z,18.27
2022-11-29T12:15:29.686Z,15.85
2022-11-29T12:18:07.267Z,15.00
2022-11-29T12:20:45.613Z,15.55
2022-11-29T12:23:36.191Z,10.40
2022-11-29T12:26:34.472Z,14.25
2022-11-29T12:29:04.863Z,10.55
2022-11-29T12:31:56.101Z,7.18
2022-11-29T12:34:51.712Z,7.10
2022-11-29T12:37:30.318Z,6.65
2022-11-29T12:40:15.551Z,9.88
2022-11-29T12:42:56.097Z,8.68
2022-11-29T12:45:42.932Z,7.78
2022-11-29T12:48:31.701Z,7.65
2022-11-29T12:51:11.450Z,7.70
2022-11-29T12:54:11.558Z,5.60
2022-11-29T12:56:50.529Z,7.75
2022-11-29T12:59:36.501Z,8.43
2022-11-29T13:02:29.774Z,8.35
2022-11-29T13:05:14.189Z,13.35
2022-11-29T13:08:21.382Z,6.55
2022-11-29T13:11:06.985Z,9.60
2022-11-29T13:13:42.681Z,9.60
2022-11-29T13:16:36.436Z,7.63
2022-11-29T13:21:57.646Z,8.10
2022-11-29T13:24:38.352Z,7.55
2022-11-29T13:27:20.097Z,9.13
2022-11-29T13:29:50.168Z,10.65
2022-11-29T13:32:36.334Z,12.00
2022-11-29T13:35:21.530Z,7.13
2022-11-29T13:37:59.098Z,9.43
2022-11-29T13:40:39.258Z,5.82
2022-11-29T13:43:21.754Z,11.93
2022-11-29T13:46:01.278Z,9.07
2022-11-29T13:48:47.857Z,7.70
2022-11-29T13:51:34.579Z,9.95
2022-11-29T13:54:26.613Z,9.13
2022-11-29T13:57:06.685Z,10.43
2022-11-29T13:59:47.117Z,7.85
2022-11-29T14:02:30.490Z,7.43
2022-11-29T14:05:30.292Z,9.43
2022-11-29T14:08:26.514Z,12.50
2022-11-29T14:11:03.312Z,11.13
2022-11-29T14:13:49.767Z,10.30
2022-11-29T14:16:29.239Z,10.15
2022-11-29T14:19:31.613Z,10.60
2022-11-29T14:22:23.380Z,8.57
2022-11-29T14:25:50.534Z,11.05
2022-11-29T14:28:33.737Z,12.55
2022-11-29T14:31:05.112Z,12.20
2022-11-29T14:34:01.550Z,10.10
2022-11-29T14:36:51.875Z,12.20
2022-11-29T14:39:43.997Z,12.70
2022-11-29T14:42:18.657Z,11.30
